createdAt,value
2018-07-16T00:00:29.350Z,5.67
2018-07-16T00:02:58.407Z,5.57
2018-07-16T00:05:27.560Z,5.53
2018-07-16T00:07:56.344Z,5.90
2018-07-16T00:10:25.307Z,5.90
2018-07-16T00:12:54.392Z,5.90
2018-07-16T00:15:23.470Z,6.43
2018-07-16T00:17:52.565Z,6.57
2018-07-16T00:20:21.631Z,6.23
2018-07-16T00:22:50.695Z,6.73
2018-07-16T00:25:19.779Z,7.17
2018-07-16T00:27:48.831Z,7.40
2018-07-16T00:30:18.018Z,6.73
2018-07-16T00:32:47.092Z,6.73
2018-07-16T00:35:16.182Z,8.07
2018-07-16T00:37:45.295Z,7.33
2018-07-16T00:40:14.384Z,6.53
2018-07-16T00:42:43.436Z,7.30
2018-07-16T00:45:12.239Z,6.93
2018-07-16T00:47:41.191Z,7.73
2018-07-16T00:50:10.256Z,7.43
2018-07-16T00:52:39.332Z,7.60
2018-07-16T00:55:08.405Z,7.73
2018-07-16T00:57:37.472Z,7.40
2018-07-16T01:00:06.535Z,7.43
2018-07-16T01:02:35.599Z,8.17
2018-07-16T01:05:04.675Z,8.10
2018-07-16T01:07:33.760Z,8.30
2018-07-16T01:10:02.812Z,8.13
2018-07-16T01:12:31.895Z,8.43
2018-07-16T01:15:00.968Z,8.20
2018-07-16T01:17:30.031Z,7.97
2018-07-16T01:19:59.080Z,8.87
2018-07-16T01:22:28.168Z,8.40
2018-07-16T01:24:57.228Z,8.37
2018-07-16T01:27:26.019Z,9.10
2018-07-16T01:29:54.960Z,8.47
2018-07-16T01:32:24.051Z,9.00
2018-07-16T01:34:52.867Z,9.03
2018-07-16T01:37:21.844Z,8.80
2018-07-16T01:39:50.916Z,8.07
2018-07-16T01:42:19.980Z,9.30
2018-07-16T01:44:49.080Z,9.07
2018-07-16T01:47:18.165Z,8.67
2018-07-16T01:49:47.247Z,9.20
2018-07-16T01:52:16.332Z,8.80
2018-07-16T01:54:45.390Z,8.23
2018-07-16T01:57:14.456Z,9.10
2018-07-16T01:59:43.563Z,9.07
2018-07-16T02:02:12.640Z,8.80
2018-07-16T02:04:41.725Z,8.67
2018-07-16T02:07:10.811Z,8.77
2018-07-16T02:09:40.040Z,8.57
2018-07-16T02:12:09.166Z,7.73
2018-07-16T02:14:38.223Z,8.07
2018-07-16T02:17:07.295Z,8.20
2018-07-16T02:19:36.371Z,8.13
2018-07-16T02:22:05.442Z,8.63
2018-07-16T02:24:34.522Z,8.70
2018-07-16T02:27:03.619Z,8.43
2018-07-16T02:29:32.700Z,7.70
2018-07-16T02:32:01.780Z,7.70
2018-07-16T02:34:30.846Z,7.87
2018-07-16T02:37:02.929Z,7.70
2018-07-16T02:39:32.084Z,8.30
2018-07-16T02:42:01.167Z,8.90
2018-07-16T02:44:30.358Z,8.63
2018-07-16T02:46:59.428Z,8.33
2018-07-16T02:49:28.494Z,8.17
2018-07-16T02:51:57.563Z,8.37
2018-07-16T02:54:26.638Z,8.03
2018-07-16T02:56:55.719Z,8.70
2018-07-16T02:59:24.809Z,8.13
2018-07-16T03:01:53.884Z,9.13
2018-07-16T03:04:22.958Z,7.90
2018-07-16T03:06:51.779Z,8.60
2018-07-16T03:09:20.806Z,8.30
2018-07-16T03:11:49.923Z,8.57
2018-07-16T03:14:19.117Z,8.43
2018-07-16T03:16:48.190Z,8.13
2018-07-16T03:19:17.257Z,8.10
2018-07-16T03:21:46.389Z,8.60
2018-07-16T03:24:15.481Z,7.90
2018-07-16T03:26:44.551Z,8.53
2018-07-16T03:29:13.651Z,8.00
2018-07-16T03:31:42.747Z,8.23
2018-07-16T03:34:11.822Z,8.10
2018-07-16T03:36:40.908Z,8.40
2018-07-16T03:39:10.611Z,9.00
2018-07-16T03:41:39.692Z,8.80
2018-07-16T03:44:08.825Z,8.33
2018-07-16T03:46:37.878Z,8.73
2018-07-16T03:49:06.968Z,8.47
2018-07-16T03:51:36.027Z,8.53
2018-07-16T03:54:05.176Z,8.33
2018-07-16T03:56:34.237Z,8.93
2018-07-16T03:59:03.298Z,8.90
2018-07-16T04:01:32.400Z,8.33
2018-07-16T04:04:01.464Z,8.67
2018-07-16T04:06:30.523Z,9.47
2018-07-16T04:08:59.717Z,8.70
2018-07-16T04:11:28.776Z,9.33
2018-07-16T04:13:57.855Z,9.37
2018-07-16T04:16:26.997Z,8.67
2018-07-16T04:18:56.075Z,9.57
2018-07-16T04:21:25.143Z,10.03
2018-07-16T04:23:54.259Z,9.27
2018-07-16T04:26:23.340Z,9.60
2018-07-16T04:28:52.511Z,8.97
2018-07-16T04:45:43.012Z,8.33
2018-07-16T04:48:12.114Z,10.33
2018-07-16T04:50:41.213Z,9.40
2018-07-16T04:53:10.296Z,9.30
2018-07-16T04:55:39.367Z,9.07
2018-07-16T04:58:08.505Z,9.00
2018-07-16T05:00:37.603Z,9.03
2018-07-16T05:03:06.682Z,9.20
2018-07-16T05:05:35.735Z,8.20
2018-07-16T05:08:04.840Z,8.47
2018-07-16T05:10:33.914Z,8.90
2018-07-16T05:13:03.027Z,8.87
2018-07-16T05:15:32.097Z,9.20
2018-07-16T05:18:01.197Z,8.93
2018-07-16T05:20:30.279Z,8.80
2018-07-16T05:22:59.380Z,9.13
2018-07-16T05:25:28.464Z,8.83
2018-07-16T05:27:57.547Z,9.20
2018-07-16T05:30:26.655Z,9.53
2018-07-16T05:32:55.727Z,9.50
2018-07-16T05:35:24.796Z,9.23
2018-07-16T05:37:53.871Z,9.70
2018-07-16T05:40:22.955Z,9.30
2018-07-16T05:42:52.040Z,9.53
2018-07-16T05:45:21.112Z,9.40
2018-07-16T05:47:50.195Z,9.23
2018-07-16T05:50:19.279Z,9.90
2018-07-16T05:52:48.114Z,9.60
2018-07-16T05:55:17.080Z,9.57
2018-07-16T05:57:46.155Z,9.30
2018-07-16T06:00:15.236Z,9.60
2018-07-16T06:02:44.299Z,8.80
2018-07-16T06:05:13.480Z,8.53
2018-07-16T06:07:42.607Z,9.13
2018-07-16T06:10:11.691Z,8.83
2018-07-16T06:12:40.811Z,8.80
2018-07-16T06:15:09.884Z,9.00
2018-07-16T06:17:38.984Z,9.47
2018-07-16T06:20:10.183Z,9.00
2018-07-16T06:22:39.479Z,8.53
2018-07-16T06:25:08.616Z,9.70
2018-07-16T06:27:37.820Z,8.60
2018-07-16T06:30:06.880Z,8.73
2018-07-16T06:32:36.070Z,8.10
2018-07-16T06:35:05.119Z,8.17
2018-07-16T06:37:34.288Z,8.40
2018-07-16T06:40:03.742Z,8.27
2018-07-16T06:42:32.677Z,8.07
2018-07-16T06:45:01.786Z,8.03
2018-07-16T06:47:30.916Z,7.67
2018-07-16T06:50:00.228Z,8.17
2018-07-16T06:52:29.299Z,7.23
2018-07-16T06:54:58.412Z,7.57
2018-07-16T06:57:27.261Z,7.30
2018-07-16T06:59:56.193Z,6.83
2018-07-16T07:02:25.361Z,7.07
2018-07-16T07:04:54.376Z,5.60
2018-07-16T07:07:23.490Z,5.93
2018-07-16T07:09:52.665Z,6.13
2018-07-16T07:12:21.670Z,5.50
2018-07-16T07:14:50.734Z,5.10
2018-07-16T07:17:19.811Z,5.07
2018-07-16T07:19:48.882Z,4.63
2018-07-16T07:22:17.959Z,4.20
2018-07-16T07:24:47.023Z,4.53
2018-07-16T07:27:16.400Z,3.83
2018-07-16T07:29:45.456Z,3.37
2018-07-16T07:32:14.512Z,2.90
2018-07-16T07:34:43.589Z,3.00
2018-07-16T07:37:12.663Z,2.40
2018-07-16T07:39:41.807Z,2.57
2018-07-16T07:42:10.915Z,2.50
2018-07-16T07:44:40.008Z,2.20
2018-07-16T07:47:09.080Z,2.70
2018-07-16T07:49:38.257Z,2.47
2018-07-16T07:52:07.332Z,2.33
2018-07-16T07:54:36.598Z,2.30
2018-07-16T07:57:05.535Z,2.27
2018-07-16T07:59:34.602Z,2.00
2018-07-16T08:02:03.740Z,2.17
2018-07-16T08:04:32.925Z,2.40
2018-07-16T08:07:07.463Z,2.00
2018-07-16T08:09:36.534Z,2.30
2018-07-16T08:12:05.843Z,2.00
2018-07-16T08:14:34.925Z,2.13
2018-07-16T08:17:04.453Z,1.80
2018-07-16T08:19:33.530Z,2.10
2018-07-16T08:22:02.615Z,2.00
2018-07-16T08:24:32.056Z,1.83
2018-07-16T08:27:01.124Z,1.80
2018-07-16T08:29:30.196Z,1.80
2018-07-16T08:31:59.304Z,1.60
2018-07-16T08:34:28.372Z,1.60
2018-07-16T08:36:57.520Z,1.83
2018-07-16T08:39:26.580Z,1.73
2018-07-16T08:41:55.661Z,1.63
2018-07-16T08:44:24.807Z,1.80
2018-07-16T08:46:53.897Z,1.60
2018-07-16T08:49:22.946Z,1.77
2018-07-16T08:51:52.026Z,1.63
2018-07-16T08:54:20.831Z,1.47
2018-07-16T08:56:49.851Z,1.83
2018-07-16T08:59:18.991Z,1.73
2018-07-16T09:01:48.015Z,1.70
2018-07-16T09:04:17.058Z,1.43
2018-07-16T09:06:46.133Z,1.80
2018-07-16T09:09:15.203Z,1.77
2018-07-16T09:11:44.271Z,1.60
2018-07-16T09:14:13.332Z,1.60
2018-07-16T09:16:42.457Z,1.70
2018-07-16T09:19:11.507Z,1.37
2018-07-16T09:21:40.539Z,1.80
2018-07-16T09:24:09.613Z,1.73
2018-07-16T09:26:38.719Z,1.77
2018-07-16T09:29:07.883Z,1.47
2018-07-16T09:31:36.968Z,1.50
2018-07-16T09:34:06.059Z,1.40
2018-07-16T09:36:35.119Z,1.30
2018-07-16T09:39:06.007Z,1.30
2018-07-16T09:41:35.008Z,1.83
2018-07-16T09:44:04.284Z,2.03
2018-07-16T09:46:33.362Z,1.57
2018-07-16T09:49:02.436Z,1.60
2018-07-16T09:51:31.240Z,1.83
2018-07-16T09:54:00.177Z,1.50
2018-07-16T09:56:29.278Z,1.67
2018-07-16T09:58:58.319Z,1.60
2018-07-16T10:01:32.714Z,1.40
2018-07-16T10:04:02.784Z,1.60
2018-07-16T10:06:31.861Z,1.80
2018-07-16T10:09:00.914Z,1.50
2018-07-16T10:11:30.018Z,1.43
2018-07-16T10:13:59.123Z,1.70
2018-07-16T10:16:28.175Z,1.57
2018-07-16T10:18:57.240Z,1.50
2018-07-16T10:21:26.383Z,1.77
2018-07-16T10:23:55.456Z,1.47
2018-07-16T10:26:24.564Z,1.80
2018-07-16T10:28:53.621Z,1.73
2018-07-16T10:31:22.679Z,1.63
2018-07-16T10:33:53.051Z,1.30
2018-07-16T10:36:22.112Z,1.80
2018-07-16T10:38:51.180Z,1.50
2018-07-16T10:41:20.296Z,1.80
2018-07-16T10:43:49.367Z,1.73
2018-07-16T10:46:18.448Z,1.67
2018-07-16T10:48:47.552Z,1.63
2018-07-16T10:51:16.701Z,1.60
2018-07-16T10:53:45.515Z,1.80
2018-07-16T10:56:14.463Z,1.47
2018-07-16T10:58:43.546Z,1.77
2018-07-16T11:01:12.650Z,2.03
2018-07-16T11:32:24.239Z,1.77
2018-07-16T11:34:53.315Z,1.77
2018-07-16T11:37:22.414Z,1.73
2018-07-16T11:39:51.592Z,1.93
2018-07-16T11:42:20.670Z,1.47
2018-07-16T11:44:49.751Z,2.00
2018-07-16T11:47:18.871Z,1.70
2018-07-16T11:49:47.658Z,1.83
2018-07-16T11:52:16.650Z,2.10
2018-07-16T11:54:45.846Z,1.90
2018-07-16T11:57:14.909Z,1.70
2018-07-16T11:59:43.979Z,2.00
2018-07-16T12:23:34.262Z,2.07
2018-07-16T12:26:03.484Z,2.10
2018-07-16T12:28:32.467Z,2.20
2018-07-16T12:31:01.531Z,2.43
2018-07-16T12:33:30.621Z,2.43
2018-07-16T12:35:59.683Z,2.40
2018-07-16T12:38:28.778Z,2.40
2018-07-16T12:40:57.867Z,2.17
2018-07-16T12:43:26.979Z,2.40
2018-07-16T12:45:56.098Z,2.10
2018-07-16T12:48:25.167Z,2.13
2018-07-16T12:50:54.216Z,2.50
2018-07-16T12:53:23.344Z,2.00
2018-07-16T12:55:52.421Z,2.57
2018-07-16T12:58:21.493Z,2.90
2018-07-16T13:00:50.540Z,2.43
2018-07-16T13:03:19.620Z,2.60
2018-07-16T13:05:48.676Z,2.40
2018-07-16T13:08:17.729Z,2.40
2018-07-16T13:10:46.781Z,2.17
2018-07-16T13:13:15.971Z,2.50
2018-07-16T13:15:45.083Z,2.13
2018-07-16T13:18:14.214Z,2.33
2018-07-16T13:20:43.341Z,2.60
2018-07-16T13:23:12.378Z,2.30
2018-07-16T13:25:41.448Z,2.63
2018-07-16T13:28:10.508Z,2.77
2018-07-16T13:30:39.580Z,2.83
2018-07-16T13:33:08.643Z,3.03
2018-07-16T13:35:37.700Z,2.63
2018-07-16T13:38:06.759Z,2.40
2018-07-16T13:40:35.902Z,2.40
2018-07-16T13:43:04.931Z,2.90
2018-07-16T13:45:33.987Z,2.30
2018-07-16T13:48:03.071Z,2.80
2018-07-16T13:50:32.173Z,2.77
2018-07-16T13:53:01.300Z,2.93
2018-07-16T13:55:30.381Z,2.87
2018-07-16T13:57:59.442Z,2.53
2018-07-16T14:00:28.536Z,2.80
2018-07-16T14:02:57.609Z,2.80
2018-07-16T14:05:26.688Z,2.20
2018-07-16T14:07:55.760Z,3.33
2018-07-16T14:10:24.849Z,2.47
2018-07-16T14:12:54.327Z,2.90
2018-07-16T14:15:23.426Z,3.13
2018-07-16T14:17:52.491Z,3.03
2018-07-16T14:20:21.579Z,2.20
2018-07-16T14:22:50.731Z,2.33
2018-07-16T14:25:19.839Z,2.63
2018-07-16T14:27:49.710Z,2.77
2018-07-16T14:30:18.779Z,2.20
2018-07-16T14:32:47.863Z,3.00
2018-07-16T14:35:16.972Z,2.63
2018-07-16T14:37:46.084Z,2.80
2018-07-16T14:40:15.264Z,2.50
2018-07-16T14:42:44.385Z,2.60
2018-07-16T14:45:13.499Z,2.63
2018-07-16T15:19:45.162Z,2.90
2018-07-16T15:22:14.224Z,2.80
2018-07-16T15:24:43.540Z,2.80
2018-07-16T15:27:12.626Z,2.60
2018-07-16T15:29:42.073Z,3.07
2018-07-16T15:32:11.155Z,3.10
2018-07-16T15:34:40.236Z,2.93
2018-07-16T15:37:09.304Z,3.23
2018-07-16T15:39:38.532Z,2.50
2018-07-16T15:42:07.642Z,2.60
2018-07-16T15:44:36.855Z,2.60
2018-07-16T15:47:06.095Z,2.20
2018-07-16T15:49:35.300Z,2.93
2018-07-16T15:52:04.418Z,2.60
2018-07-16T15:54:33.483Z,2.83
2018-07-16T15:57:02.591Z,2.63
2018-07-16T15:59:31.720Z,2.80
2018-07-16T16:02:00.828Z,2.07
2018-07-16T16:04:30.153Z,2.67
2018-07-16T16:06:59.498Z,2.37
2018-07-16T16:09:28.576Z,2.00
2018-07-16T16:11:57.635Z,2.27
2018-07-16T16:14:27.272Z,2.47
2018-07-16T16:16:56.774Z,2.33
2018-07-16T16:19:25.912Z,2.90
2018-07-16T16:21:54.972Z,2.60
2018-07-16T16:24:24.025Z,2.33
2018-07-16T16:26:53.105Z,2.40
2018-07-16T16:29:22.475Z,2.33
2018-07-16T16:31:51.560Z,2.10
2018-07-16T16:34:20.656Z,2.40
2018-07-16T16:36:50.155Z,2.30
2018-07-16T16:39:19.242Z,2.27
2018-07-16T16:41:48.310Z,2.73
2018-07-16T16:44:17.369Z,1.97
2018-07-16T16:46:46.480Z,2.50
2018-07-16T16:49:15.636Z,1.77
2018-07-16T16:51:44.784Z,2.30
2018-07-16T16:54:13.719Z,2.60
2018-07-16T16:56:42.800Z,2.87
2018-07-16T16:59:11.987Z,2.30
2018-07-16T17:01:41.046Z,2.37
2018-07-16T17:04:10.140Z,2.20
2018-07-16T17:06:39.261Z,2.20
2018-07-16T17:09:08.794Z,2.40
2018-07-16T17:11:37.880Z,2.37
2018-07-16T17:14:06.970Z,2.20
2018-07-16T17:16:36.048Z,2.20
2018-07-16T17:19:04.827Z,2.10
2018-07-16T17:21:33.801Z,2.03
2018-07-16T17:24:02.863Z,2.63
2018-07-16T17:26:31.934Z,1.77
2018-07-16T17:29:00.805Z,2.10
2018-07-16T17:31:30.756Z,1.90
2018-07-16T17:33:59.860Z,2.03
2018-07-16T17:36:28.936Z,2.30
2018-07-16T17:38:58.023Z,1.37
2018-07-16T17:41:27.158Z,2.20
2018-07-16T17:43:56.240Z,2.00
2018-07-16T17:46:25.369Z,1.97
2018-07-16T17:48:54.488Z,1.77
2018-07-16T17:51:23.605Z,2.07
2018-07-16T17:53:52.403Z,2.20
2018-07-16T17:56:21.362Z,2.20
2018-07-16T17:58:50.576Z,2.17
2018-07-16T18:01:19.720Z,1.93
2018-07-16T18:03:48.687Z,1.70
2018-07-16T18:06:17.900Z,2.20
2018-07-16T18:08:47.013Z,2.13
2018-07-16T18:11:16.075Z,2.17
2018-07-16T18:13:45.245Z,2.23
2018-07-16T18:16:14.331Z,2.70
2018-07-16T19:04:21.552Z,2.60
2018-07-16T19:06:50.492Z,2.70
2018-07-16T19:09:19.451Z,3.00
2018-07-16T19:11:48.541Z,2.97
2018-07-16T19:14:17.649Z,3.10
2018-07-16T19:16:46.825Z,3.27
2018-07-16T19:19:15.653Z,2.97
2018-07-16T19:21:44.591Z,3.00
2018-07-16T19:24:13.678Z,3.30
2018-07-16T19:26:42.765Z,2.90
2018-07-16T19:29:11.886Z,2.93
2018-07-16T19:31:41.105Z,2.87
2018-07-16T19:34:10.392Z,3.47
2018-07-16T19:36:39.549Z,3.13
2018-07-16T19:39:09.287Z,3.37
2018-07-16T19:41:38.148Z,3.10
2018-07-16T19:44:07.405Z,3.17
2018-07-16T19:46:36.545Z,2.97
2018-07-16T19:49:05.727Z,3.40
2018-07-16T19:51:34.821Z,3.27
2018-07-16T19:54:03.943Z,2.83
2018-07-16T19:56:33.020Z,3.50
2018-07-16T19:59:02.121Z,3.70
2018-07-16T20:01:31.348Z,4.00
2018-07-16T20:04:00.633Z,3.73
2018-07-16T20:06:29.863Z,4.07
2018-07-16T20:08:59.320Z,4.43
2018-07-16T20:11:28.501Z,4.47
2018-07-16T20:13:57.331Z,4.70
2018-07-16T20:16:35.702Z,4.03
2018-07-16T20:19:04.854Z,3.70
2018-07-16T20:21:33.996Z,3.57
2018-07-16T20:24:03.080Z,3.53
2018-07-16T20:26:32.202Z,3.20
2018-07-16T20:29:01.317Z,3.33
2018-07-16T20:31:30.563Z,3.70
2018-07-16T20:33:59.672Z,3.40
2018-07-16T20:36:28.892Z,3.37
2018-07-16T20:38:58.051Z,3.00
2018-07-16T20:41:27.440Z,3.37
2018-07-16T20:43:56.541Z,3.23
2018-07-16T20:46:25.641Z,3.50
2018-07-16T20:48:54.722Z,3.47
2018-07-16T20:51:23.893Z,3.80
2018-07-16T20:53:53.012Z,3.90
2018-07-16T20:56:22.120Z,3.40
2018-07-16T20:58:51.219Z,3.30
2018-07-16T21:01:20.031Z,3.97
2018-07-16T21:03:49.015Z,4.00
2018-07-16T21:06:18.129Z,4.23
2018-07-16T21:08:47.268Z,4.27
2018-07-16T21:11:16.405Z,4.40
2018-07-16T21:13:45.509Z,4.50
2018-07-16T21:16:14.580Z,4.30
2018-07-16T21:18:43.665Z,4.73
2018-07-16T21:21:12.741Z,5.20
2018-07-16T21:23:41.819Z,4.70
2018-07-16T21:26:10.936Z,5.23
2018-07-16T21:28:40.024Z,5.50
2018-07-16T21:31:09.128Z,5.50
2018-07-16T21:33:38.203Z,5.47
2018-07-16T21:36:07.448Z,4.97
2018-07-16T21:38:36.557Z,5.70
2018-07-16T21:41:05.634Z,5.00
2018-07-16T21:43:34.775Z,4.77
2018-07-16T21:46:03.975Z,5.50
2018-07-16T21:48:33.111Z,6.03
2018-07-16T21:51:02.185Z,6.47
2018-07-16T21:53:31.303Z,7.60
2018-07-16T21:56:00.400Z,7.70
2018-07-16T21:58:29.517Z,7.30
2018-07-16T22:00:58.607Z,7.77
2018-07-16T22:03:27.759Z,6.20
2018-07-16T22:05:56.939Z,5.27
2018-07-16T22:08:26.016Z,4.93
2018-07-16T22:10:55.186Z,4.60
2018-07-16T22:13:24.267Z,4.30
2018-07-16T22:15:53.324Z,4.77
2018-07-16T22:18:22.465Z,4.70
2018-07-16T22:20:51.541Z,4.70
2018-07-16T22:23:20.660Z,4.67
2018-07-16T22:25:49.735Z,4.90
2018-07-16T22:28:18.807Z,4.33
2018-07-16T22:30:47.867Z,4.40
2018-07-16T22:33:16.984Z,3.70
2018-07-16T22:35:46.069Z,4.03
2018-07-16T22:38:15.198Z,3.50
2018-07-16T22:40:44.280Z,3.57
2018-07-16T22:43:13.354Z,3.70
2018-07-16T22:45:42.425Z,3.97
2018-07-16T22:48:11.514Z,3.60
2018-07-16T22:50:40.597Z,3.60
2018-07-16T22:53:09.698Z,3.97
2018-07-16T22:55:38.789Z,3.60
2018-07-16T22:58:07.880Z,3.97
2018-07-16T23:00:36.977Z,3.50
2018-07-16T23:03:06.062Z,4.20
2018-07-16T23:05:35.156Z,4.60
2018-07-16T23:08:04.248Z,4.43
2018-07-16T23:10:33.336Z,4.20
2018-07-16T23:13:02.415Z,4.30
2018-07-16T23:15:31.492Z,4.53
2018-07-16T23:18:00.565Z,4.07
2018-07-16T23:20:29.640Z,4.67
2018-07-16T23:22:58.712Z,4.10
2018-07-16T23:25:27.858Z,4.10
2018-07-16T23:27:56.896Z,4.30
2018-07-16T23:30:25.985Z,3.80
2018-07-16T23:32:55.053Z,4.03
2018-07-16T23:35:24.121Z,3.60
2018-07-16T23:37:53.188Z,3.30
2018-07-16T23:40:22.283Z,3.70
2018-07-16T23:42:51.365Z,4.07
2018-07-16T23:45:20.466Z,3.53
2018-07-16T23:47:49.523Z,3.77
2018-07-16T23:50:18.385Z,3.97
2018-07-16T23:52:47.326Z,3.87
2018-07-16T23:55:16.420Z,3.90
2018-07-16T23:57:45.500Z,4.00
